• Join FlightAware (Why Join?)
  • Login
  • US Flag 
06:07AM EDT


 

Airport Tracker/Info


-or-


 

Live Flight TrackerFlight Track Log ✈ SWA2147 ✈ 23-Apr-2013 ✈ KMDW - KMHT

Flight Track Log - Related Links

Times and Time Zones

All times are in EDT time to prevent confusion due to time zone crossing. See the SWA2147 flight status page for this flight to view local times or setup timezone preferences in your user account.

Time Position Orientation Groundspeed Altitude Reporting Facility
EDT Latitude Longitude Course Direction KTS MPH feet Rate Location/Type
10:38PM 41.8167 -87.7667 94° East 161 185 2,200  Level Chicago TRACON
10:40PM 41.8103 -87.6342 94° East 232 267 5,500 2,400 Climbing Chicago Center
10:41PM 41.8006 -87.5239 97° East 275 316 8,600 2,580 Climbing Chicago Center
10:42PM 41.7758 -87.4111 106° East 308 354 10,800 2,100 Climbing Chicago Center
10:43PM 41.7525 -87.2756 103° East 359 413 13,000 2,400 Climbing Chicago Center
10:44PM 41.7586 -87.1225 87° East 403 464 15,800 2,460 Climbing Chicago Center
10:45PM 41.7625 -86.9672 88° East 415 478 18,100 2,220 Climbing Chicago Center
10:46PM 41.7778 -86.8019 83° East 441 507 20,400 2,340 Climbing Chicago Center
10:47PM 41.7983 -86.6244 81° East 459 528 23,000 2,280 Climbing Chicago Center
10:48PM 41.8178 -86.4528 81° East 464 534 25,100 1,920 Climbing Chicago Center
10:49PM 41.8422 -86.2411 81° East 476 548 27,000 1,560 Climbing Chicago Center
10:50PM 41.8628 -86.0572 81° East 492 566 28,400 1,440 Climbing Chicago Center
10:51PM 41.8836 -85.8681 82° East 506 582 30,000 1,620 Climbing Chicago Center
10:52PM 41.9050 -85.6789 81° East 509 586 31,800 1,440 Climbing Chicago Center
10:53PM 41.9253 -85.4897 82° East 507 583 33,000 660 Climbing Chicago Center
10:54PM 41.9414 -85.3658 80° East 512 589 33,000  Level Cleveland Center
10:55PM 41.9533 -85.1767 85° East 512 589 33,000  Level Cleveland Center
10:56PM 41.9544 -84.9897 89° East 512 589 33,000  Level Cleveland Center
10:57PM 41.9511 -84.8022 91° East 507 583 33,000  Level Cleveland Center
10:58PM 41.9494 -84.6178 91° East 507 583 33,000  Level Cleveland Center
10:59PM 41.9475 -84.4306 91° East 496 571 33,100 660 Climbing Cleveland Center
11:00PM 41.9417 -84.2264 92° East 496 571 34,400 900 Climbing Cleveland Center
11:01PM 41.9392 -84.0336 91° East 496 571 35,000 300 Climbing Cleveland Center
11:02PM 41.9367 -83.8408 91° East 502 578 35,000  Level Cleveland Center
11:03PM 41.9336 -83.6508 91° East 502 578 35,000  Level Cleveland Center
11:04PM 41.9322 -83.4608 90° East 508 585 35,000  Level Cleveland Center
11:05PM 41.9325 -83.2711 90° East 508 585 35,000  Level Cleveland Center
11:06PM 41.9328 -83.0842 90° East 508 585 35,000  Level Cleveland Center
11:07PM 41.9300 -82.9081 91° East 513 590 35,000  Level Cleveland Center
11:08PM 41.9275 -82.7211 91° East 513 590 35,000  Level Cleveland Center
11:09PM 41.9414 -82.5317 84° East 513 590 35,000  Level Cleveland Center
11:10PM 41.9569 -82.3422 84° East 513 590 35,000  Level Cleveland Center
11:11PM 41.9764 -82.1472 82° East 513 590 35,000  Level Cleveland Center
11:12PM 41.9914 -81.9575 84° East 518 596 35,000  Level Cleveland Center
11:13PM 42.0083 -81.7483 84° East 518 596 35,000  Level Cleveland Center
11:14PM 42.0225 -81.5586 84° East 513 590 35,000  Level Cleveland Center
11:15PM 42.0386 -81.3689 83° East 513 590 35,000  Level Cleveland Center
11:16PM 42.0522 -81.1817 84° East 508 585 35,000  Level Cleveland Center
11:17PM 42.0675 -80.9972 84° East 502 578 35,000  Level Cleveland Center
11:18PM 42.0806 -80.8042 85° East 502 578 35,000  Level Cleveland Center
11:19PM 42.0933 -80.6167 85° East 502 578 35,000  Level Cleveland Center
11:20PM 42.1058 -80.4489 84° East 502 578 35,000  Level Cleveland Center
11:21PM 42.1181 -80.2614 85° East 502 578 35,000  Level Cleveland Center
11:22PM 42.1297 -80.0736 85° East 502 578 35,000  Level Cleveland Center
11:23PM 42.1453 -79.8692 84° East 502 578 35,000  Level Cleveland Center
11:24PM 42.1544 -79.6814 86° East 502 578 35,000  Level Cleveland Center
11:25PM 42.1675 -79.4933 85° East 502 578 35,000  Level Cleveland Center
11:26PM 42.1800 -79.3056 85° East 497 572 35,000  Level Cleveland Center
11:27PM 42.1906 -79.1231 85° East 497 572 35,000  Level Cleveland Center
11:28PM 42.2131 -78.9403 81° East 497 572 35,000  Level Cleveland Center
11:29PM 42.2372 -78.7575 80° East 497 572 35,000  Level Cleveland Center
11:30PM 42.2572 -78.5744 82° East 497 572 35,000  Level Cleveland Center
11:31PM 42.2811 -78.3942 80° East 492 566 35,000  Level Cleveland Center
11:32PM 42.3025 -78.2108 81° East 492 566 35,000  Level Cleveland Center
11:33PM 42.3256 -78.0247 80° East 487 560 35,000  Level Cleveland Center
11:34PM 42.3464 -77.8411 81° East 487 560 35,000  Level Cleveland Center
11:35PM 42.3689 -77.6575 81° East 487 560 35,000  Level Cleveland Center
11:36PM 42.4014 -77.3756 81° East 475 547 35,000  Level Boston Center
11:37PM 42.4217 -77.1942 81° East 480 552 35,000  Level Boston Center
11:38PM 42.4417 -77.0128 81° East 480 552 35,000  Level Boston Center
11:39PM 42.4614 -76.8311 82° East 486 559 35,000  Level Boston Center
11:40PM 42.4808 -76.6467 82° East 486 559 35,000  Level Boston Center
11:41PM 42.5000 -76.4647 82° East 486 559 35,000  Level Boston Center
11:42PM 42.5189 -76.2828 82° East 481 554 35,000  Level Boston Center
11:43PM 42.5400 -76.0839 82° East 482 555 35,000  Level Boston Center
11:44PM 42.5583 -75.8989 82° East 482 555 35,000  Level Boston Center
11:45PM 42.5761 -75.7222 82° East 482 555 35,000  Level Boston Center
11:46PM 42.5936 -75.5425 82° East 482 555 35,000  Level Boston Center
11:47PM 42.6089 -75.3600 83° East 482 555 35,000 -540 Level Boston Center
11:48PM 42.6258 -75.1831 83° East 482 555 34,000 -1,020 Descending Boston Center
11:49PM 42.6422 -75.0086 83° East 477 549 33,000 -1,020 Descending Boston Center
11:50PM 42.6561 -74.8511 83° East 472 543 32,000 -1,080 Descending Boston Center
11:51PM 42.6722 -74.6850 82° East 460 529 30,900 -1,080 Descending Boston Center
11:52PM 42.6858 -74.5161 84° East 455 524 29,900 -1,200 Descending Boston Center
11:53PM 42.7011 -74.3556 83° East 443 510 28,500 -1,680 Descending Boston Center
11:54PM 42.7139 -74.1978 84° East 431 496 26,600 -1,920 Descending Boston Center
11:55PM 42.7267 -74.0456 83° East 416 479 24,800 -1,800 Descending Boston Center
11:56PM 42.7392 -73.9017 83° East 404 465 23,000 -1,500 Descending Boston Center
11:57PM 42.7492 -73.7606 84° East 383 441 21,900 -1,140 Descending Boston Center
11:58PM 42.7569 -73.6192 86° East 361 415 20,800 -1,020 Descending Boston Center
11:59PM 42.7603 -73.4836 88° East 349 402 19,900 -900 Descending Boston Center
12:00AM 42.7614 -73.3478 89° East 349 402 19,000 -480 Descending Boston Center
12:01AM 42.7667 -73.2094 87° East 361 415 19,000  Level Boston Center
12:02AM 42.7717 -73.0681 87° East 366 421 19,000  Level Boston Center
12:03AM 42.7786 -72.9436 86° East 366 421 19,000  Level Boston Center
12:04AM 42.7833 -72.8022 87° East 366 421 19,000 -420 Level Boston Center
12:05AM 42.7858 -72.6719 88° East 355 409 18,200 -1,140 Descending Boston Center
12:06AM 42.7881 -72.5475 89° East 342 394 16,800 -1,560 Descending Boston Center
12:07AM 42.7922 -72.4258 87° East 326 375 15,100 -1,680 Descending Boston Center
12:08AM 42.7964 -72.3072 87° East 320 368 13,500 -1,680 Descending Boston Center
12:09AM 42.7919 -72.1856 93° East 320 368 11,800 -1,740 Descending Boston Center
12:10AM 42.7811 -72.0583 97° East 314 361 10,100 -1,320 Descending Boston Center
12:11AM 42.7703 -71.9564 98° East 309 356 9,200 -1,200 Descending Boston Center
12:12AM 42.7614 -71.8433 96° East 281 323 7,700 -1,380 Descending Boston Center
12:13AM 42.7525 -71.7531 98° East 270 311 6,500 -1,200 Descending Boston Center
12:14AM 42.7436 -71.6456 96° East 265 305 5,300 -1,320 Descending Boston Center
12:15AM 42.7347 -71.5611 98° East 254 292 3,900 -1,080 Descending Boston Center
12:16AM 42.7233 -71.4650 99° East 248 285 3,200 -480 Descending Boston Center
12:17AM 42.7292 -71.4000 83° East 207 238 3,000 -300 Descending Boston Center
12:18AM 42.7661 -71.3456 47° Northeast 171 197 2,700 -420 Descending Boston Center
12:19AM 42.8100 -71.3647 342° North 136 157 2,200 -540 Descending Boston Center
12:20AM 42.8583 -71.3892 340° North 150 173 1,700 -600 Descending Boston Center
12:21AM 42.8875 -71.4086 334° Northwest 150 173 1,000 -600 Descending Boston Center
12:22AM 42.9275 -71.4306 338° Northwest 136 157 500 -540 Descending Boston Center
12:24AM 42.9167 -71.4333 316° Northwest  Level FlightAware Approximate